sensor_id;sensor_type;location;lat;lon;timestamp;pressure;altitude;pressure_sealevel;temperature;humidity
81033;BME280;70514;52.478;6.102;2023-08-07T00:01:04;101189.75;;;15.45;82.71
81033;BME280;70514;52.478;6.102;2023-08-07T00:03:33;101187.31;;;15.22;83.90
81033;BME280;70514;52.478;6.102;2023-08-07T00:06:04;101186.50;;;15.12;84.98
81033;BME280;70514;52.478;6.102;2023-08-07T00:08:33;101188.13;;;15.24;84.07
81033;BME280;70514;52.478;6.102;2023-08-07T00:11:09;101184.66;;;15.31;84.17
81033;BME280;70514;52.478;6.102;2023-08-07T00:13:38;101190.72;;;15.24;84.38
81033;BME280;70514;52.478;6.102;2023-08-07T00:16:08;101191.63;;;15.23;84.02
81033;BME280;70514;52.478;6.102;2023-08-07T00:18:39;101185.56;;;15.22;84.53
81033;BME280;70514;52.478;6.102;2023-08-07T00:21:08;101199.38;;;15.26;84.31
81033;BME280;70514;52.478;6.102;2023-08-07T00:23:37;101185.66;;;15.06;85.14
81033;BME280;70514;52.478;6.102;2023-08-07T00:26:06;101185.56;;;15.21;84.81
81033;BME280;70514;52.478;6.102;2023-08-07T00:28:35;101190.75;;;15.21;84.26
81033;BME280;70514;52.478;6.102;2023-08-07T00:31:04;101186.50;;;15.03;86.01
81033;BME280;70514;52.478;6.102;2023-08-07T00:33:33;101183.84;;;15.21;84.78
81033;BME280;70514;52.478;6.102;2023-08-07T00:36:03;101192.41;;;15.39;83.66
81033;BME280;70514;52.478;6.102;2023-08-07T00:38:32;101187.16;;;15.52;82.74
81033;BME280;70514;52.478;6.102;2023-08-07T00:41:01;101190.00;;;15.01;85.98
81033;BME280;70514;52.478;6.102;2023-08-07T00:43:31;101190.00;;;14.99;86.15
81033;BME280;70514;52.478;6.102;2023-08-07T00:46:00;101185.72;;;14.89;86.18
81033;BME280;70514;52.478;6.102;2023-08-07T00:48:31;101191.44;;;15.56;83.66
81033;BME280;70514;52.478;6.102;2023-08-07T00:51:00;101181.31;;;15.11;85.47
81033;BME280;70514;52.478;6.102;2023-08-07T00:53:30;101187.31;;;15.16;85.80
81033;BME280;70514;52.478;6.102;2023-08-07T00:55:59;101189.06;;;15.17;84.58
81033;BME280;70514;52.478;6.102;2023-08-07T00:58:29;101198.53;;;15.22;85.47
81033;BME280;70514;52.478;6.102;2023-08-07T01:00:58;101190.69;;;15.30;83.84
81033;BME280;70514;52.478;6.102;2023-08-07T01:03:28;101199.88;;;15.87;80.63
81033;BME280;70514;52.478;6.102;2023-08-07T01:05:57;101197.72;;;16.38;78.36
81033;BME280;70514;52.478;6.102;2023-08-07T01:08:27;101208.38;;;16.96;75.24
81033;BME280;70514;52.478;6.102;2023-08-07T01:16:52;101223.25;;;17.55;71.58
81033;BME280;70514;52.478;6.102;2023-08-07T01:19:27;101223.06;;;17.69;71.14
81033;BME280;70514;52.478;6.102;2023-08-07T01:22:26;101227.00;;;17.33;72.67
81033;BME280;70514;52.478;6.102;2023-08-07T01:24:55;101218.34;;;17.34;72.47
81033;BME280;70514;52.478;6.102;2023-08-07T01:27:31;101219.28;;;17.28;72.26
81033;BME280;70514;52.478;6.102;2023-08-07T01:30:11;101226.28;;;17.23;72.80
81033;BME280;70514;52.478;6.102;2023-08-07T01:33:05;101221.13;;;17.19;72.78
81033;BME280;70514;52.478;6.102;2023-08-07T01:35:44;101222.66;;;17.35;71.89
81033;BME280;70514;52.478;6.102;2023-08-07T01:38:15;101222.75;;;17.27;72.31
81033;BME280;70514;52.478;6.102;2023-08-07T01:40:46;101215.13;;;17.12;72.62
81033;BME280;70514;52.478;6.102;2023-08-07T01:43:17;101215.06;;;17.20;73.20
81033;BME280;70514;52.478;6.102;2023-08-07T01:45:47;101215.72;;;17.34;71.77
81033;BME280;70514;52.478;6.102;2023-08-07T01:48:16;101224.19;;;17.51;71.10
81033;BME280;70514;52.478;6.102;2023-08-07T01:50:46;101216.75;;;17.22;72.59
81033;BME280;70514;52.478;6.102;2023-08-07T01:53:15;101214.63;;;17.50;71.45
81033;BME280;70514;52.478;6.102;2023-08-07T01:55:44;101215.75;;;17.31;72.15
81033;BME280;70514;52.478;6.102;2023-08-07T01:58:13;101210.41;;;17.41;71.39
81033;BME280;70514;52.478;6.102;2023-08-07T02:00:42;101209.59;;;17.39;71.60
81033;BME280;70514;52.478;6.102;2023-08-07T02:03:11;101217.22;;;16.83;73.97
81033;BME280;70514;52.478;6.102;2023-08-07T02:05:41;101224.19;;;16.81;74.13
81033;BME280;70514;52.478;6.102;2023-08-07T02:08:10;101223.81;;;17.14;73.45
81033;BME280;70514;52.478;6.102;2023-08-07T02:10:39;101222.84;;;16.37;77.43
81033;BME280;70514;52.478;6.102;2023-08-07T02:13:10;101223.22;;;15.93;79.28
81033;BME280;70514;52.478;6.102;2023-08-07T02:15:39;101223.09;;;16.07;77.98
81033;BME280;70514;52.478;6.102;2023-08-07T02:18:08;101220.09;;;16.54;75.21
81033;BME280;70514;52.478;6.102;2023-08-07T02:20:39;101222.50;;;16.77;74.14
81033;BME280;70514;52.478;6.102;2023-08-07T02:23:08;101229.72;;;16.43;76.46
81033;BME280;70514;52.478;6.102;2023-08-07T02:25:37;101230.06;;;16.95;74.12
81033;BME280;70514;52.478;6.102;2023-08-07T02:28:05;101221.38;;;16.99;73.02
81033;BME280;70514;52.478;6.102;2023-08-07T02:30:35;101226.50;;;17.05;72.65
81033;BME280;70514;52.478;6.102;2023-08-07T02:33:04;101220.47;;;16.11;76.87
81033;BME280;70514;52.478;6.102;2023-08-07T02:35:33;101226.13;;;16.59;75.34
81033;BME280;70514;52.478;6.102;2023-08-07T02:38:02;101226.13;;;16.62;75.18
81033;BME280;70514;52.478;6.102;2023-08-07T02:40:31;101214.97;;;16.46;75.98
81033;BME280;70514;52.478;6.102;2023-08-07T02:43:00;101220.38;;;16.24;77.26
81033;BME280;70514;52.478;6.102;2023-08-07T02:45:29;101217.69;;;16.34;76.37
81033;BME280;70514;52.478;6.102;2023-08-07T02:48:00;101218.81;;;16.06;77.56
81033;BME280;70514;52.478;6.102;2023-08-07T02:50:29;101223.69;;;16.41;76.00
81033;BME280;70514;52.478;6.102;2023-08-07T02:53:01;101216.94;;;16.22;76.73
81033;BME280;70514;52.478;6.102;2023-08-07T02:55:31;101217.94;;;16.04;77.80
81033;BME280;70514;52.478;6.102;2023-08-07T02:58:00;101217.63;;;16.37;76.15
81033;BME280;70514;52.478;6.102;2023-08-07T03:00:29;101213.16;;;15.39;80.75
81033;BME280;70514;52.478;6.102;2023-08-07T03:02:58;101200.97;;;15.57;80.12
81033;BME280;70514;52.478;6.102;2023-08-07T03:05:27;101216.38;;;15.85;78.70
81033;BME280;70514;52.478;6.102;2023-08-07T03:07:56;101203.97;;;16.17;77.19
81033;BME280;70514;52.478;6.102;2023-08-07T03:10:25;101217.00;;;16.12;77.99
81033;BME280;70514;52.478;6.102;2023-08-07T03:12:56;101208.81;;;16.56;74.96
81033;BME280;70514;52.478;6.102;2023-08-07T03:15:25;101209.13;;;16.25;76.83
81033;BME280;70514;52.478;6.102;2023-08-07T03:17:54;101207.28;;;16.33;75.92
81033;BME280;70514;52.478;6.102;2023-08-07T03:20:23;101201.34;;;16.22;76.68
81033;BME280;70514;52.478;6.102;2023-08-07T03:22:53;101206.72;;;16.00;77.41
81033;BME280;70514;52.478;6.102;2023-08-07T03:25:22;101186.44;;;16.39;75.33
81033;BME280;70514;52.478;6.102;2023-08-07T03:27:51;101186.75;;;16.07;77.28
81033;BME280;70514;52.478;6.102;2023-08-07T03:30:20;101187.41;;;16.32;76.38
81033;BME280;70514;52.478;6.102;2023-08-07T03:32:50;101178.66;;;16.40;75.92
81033;BME280;70514;52.478;6.102;2023-08-07T03:35:19;101185.41;;;16.60;75.17
81033;BME280;70514;52.478;6.102;2023-08-07T03:37:48;101186.75;;;16.92;73.45
81033;BME280;70514;52.478;6.102;2023-08-07T03:40:17;101191.28;;;16.75;74.92
81033;BME280;70514;52.478;6.102;2023-08-07T03:42:47;101183.44;;;16.80;73.45
81033;BME280;70514;52.478;6.102;2023-08-07T03:45:16;101185.97;;;16.87;73.33
81033;BME280;70514;52.478;6.102;2023-08-07T03:47:45;101194.31;;;17.14;71.92
81033;BME280;70514;52.478;6.102;2023-08-07T03:50:14;101184.91;;;17.04;72.55
81033;BME280;70514;52.478;6.102;2023-08-07T03:52:43;101190.97;;;17.01;72.03
81033;BME280;70514;52.478;6.102;2023-08-07T03:55:13;101178.91;;;16.97;73.06
81033;BME280;70514;52.478;6.102;2023-08-07T03:57:42;101184.59;;;17.26;71.35
81033;BME280;70514;52.478;6.102;2023-08-07T04:00:11;101193.97;;;17.39;71.36
81033;BME280;70514;52.478;6.102;2023-08-07T04:02:41;101202.66;;;17.38;70.95
81033;BME280;70514;52.478;6.102;2023-08-07T04:05:10;101197.03;;;17.69;69.17
81033;BME280;70514;52.478;6.102;2023-08-07T04:07:39;101208.38;;;17.65;69.71
81033;BME280;70514;52.478;6.102;2023-08-07T04:10:09;101210.09;;;17.66;69.84
81033;BME280;70514;52.478;6.102;2023-08-07T04:12:38;101202.22;;;17.70;69.06
81033;BME280;70514;52.478;6.102;2023-08-07T04:15:07;101220.22;;;17.87;68.47
81033;BME280;70514;52.478;6.102;2023-08-07T04:17:38;101221.31;;;17.71;69.72
81033;BME280;70514;52.478;6.102;2023-08-07T04:20:07;101222.59;;;17.38;70.22
81033;BME280;70514;52.478;6.102;2023-08-07T04:22:37;101231.69;;;17.07;71.38
81033;BME280;70514;52.478;6.102;2023-08-07T04:25:06;101231.41;;;17.28;70.52
81033;BME280;70514;52.478;6.102;2023-08-07T04:27:36;101231.34;;;17.34;70.49
81033;BME280;70514;52.478;6.102;2023-08-07T04:30:05;101234.91;;;17.25;70.93
81033;BME280;70514;52.478;6.102;2023-08-07T04:32:35;101234.16;;;17.16;71.43
81033;BME280;70514;52.478;6.102;2023-08-07T04:35:05;101238.63;;;17.08;71.92
81033;BME280;70514;52.478;6.102;2023-08-07T04:37:34;101246.13;;;16.52;74.03
81033;BME280;70514;52.478;6.102;2023-08-07T04:40:03;101246.44;;;17.06;71.92
81033;BME280;70514;52.478;6.102;2023-08-07T04:42:33;101245.25;;;17.31;71.42
81033;BME280;70514;52.478;6.102;2023-08-07T04:45:03;101251.44;;;17.21;71.47
81033;BME280;70514;52.478;6.102;2023-08-07T04:47:32;101252.47;;;17.10;72.05
81033;BME280;70514;52.478;6.102;2023-08-07T04:50:01;101256.25;;;16.80;74.84
81033;BME280;70514;52.478;6.102;2023-08-07T04:52:32;101260.13;;;17.23;71.28
81033;BME280;70514;52.478;6.102;2023-08-07T04:55:01;101255.84;;;17.19;71.97
81033;BME280;70514;52.478;6.102;2023-08-07T04:57:30;101260.91;;;17.28;71.25
81033;BME280;70514;52.478;6.102;2023-08-07T05:00:00;101257.41;;;17.31;70.84
81033;BME280;70514;52.478;6.102;2023-08-07T05:02:29;101258.31;;;17.27;71.24
81033;BME280;70514;52.478;6.102;2023-08-07T05:04:58;101259.84;;;17.45;70.07
81033;BME280;70514;52.478;6.102;2023-08-07T05:07:27;101266.94;;;17.33;70.30
81033;BME280;70514;52.478;6.102;2023-08-07T05:09:56;101274.66;;;17.39;70.07
81033;BME280;70514;52.478;6.102;2023-08-07T05:12:29;101275.72;;;17.23;70.92
81033;BME280;70514;52.478;6.102;2023-08-07T05:14:58;101266.31;;;17.12;71.74
81033;BME280;70514;52.478;6.102;2023-08-07T05:17:28;101278.16;;;17.37;70.23
81033;BME280;70514;52.478;6.102;2023-08-07T05:19:57;101274.31;;;17.68;69.00
81033;BME280;70514;52.478;6.102;2023-08-07T05:22:26;101283.16;;;17.54;69.82
81033;BME280;70514;52.478;6.102;2023-08-07T05:24:55;101283.09;;;17.61;69.55
81033;BME280;70514;52.478;6.102;2023-08-07T05:27:25;101288.13;;;17.73;69.40
81033;BME280;70514;52.478;6.102;2023-08-07T05:29:54;101294.44;;;17.53;71.26
81033;BME280;70514;52.478;6.102;2023-08-07T05:32:23;101303.88;;;17.63;69.57
81033;BME280;70514;52.478;6.102;2023-08-07T05:34:52;101300.47;;;17.59;69.53
81033;BME280;70514;52.478;6.102;2023-08-07T05:37:22;101301.06;;;17.78;68.72
81033;BME280;70514;52.478;6.102;2023-08-07T05:39:51;101304.41;;;17.88;68.47
81033;BME280;70514;52.478;6.102;2023-08-07T05:42:20;101306.41;;;17.70;68.97
81033;BME280;70514;52.478;6.102;2023-08-07T05:44:49;101315.09;;;17.71;69.10
81033;BME280;70514;52.478;6.102;2023-08-07T05:47:18;101327.09;;;17.81;69.05
81033;BME280;70514;52.478;6.102;2023-08-07T05:49:47;101320.38;;;17.63;69.32
81033;BME280;70514;52.478;6.102;2023-08-07T05:52:17;101333.06;;;17.91;67.84
81033;BME280;70514;52.478;6.102;2023-08-07T05:54:46;101331.53;;;17.76;68.46
81033;BME280;70514;52.478;6.102;2023-08-07T05:57:17;101338.63;;;17.63;68.58
81033;BME280;70514;52.478;6.102;2023-08-07T05:59:46;101341.88;;;17.79;68.40
81033;BME280;70514;52.478;6.102;2023-08-07T06:02:15;101349.88;;;17.65;68.58
81033;BME280;70514;52.478;6.102;2023-08-07T06:04:44;101348.31;;;17.48;69.25
81033;BME280;70514;52.478;6.102;2023-08-07T06:07:13;101348.44;;;17.37;70.24
81033;BME280;70514;52.478;6.102;2023-08-07T06:09:43;101351.09;;;17.32;70.08
81033;BME280;70514;52.478;6.102;2023-08-07T06:12:12;101358.97;;;17.28;70.90
81033;BME280;70514;52.478;6.102;2023-08-07T06:14:41;101356.63;;;17.04;72.52
81033;BME280;70514;52.478;6.102;2023-08-07T06:17:12;101366.78;;;17.26;70.56
81033;BME280;70514;52.478;6.102;2023-08-07T06:19:41;101367.66;;;17.27;71.01
81033;BME280;70514;52.478;6.102;2023-08-07T06:22:10;101366.47;;;17.54;70.14
81033;BME280;70514;52.478;6.102;2023-08-07T06:24:39;101374.22;;;17.63;68.84
81033;BME280;70514;52.478;6.102;2023-08-07T06:27:08;101372.78;;;17.34;70.31
81033;BME280;70514;52.478;6.102;2023-08-07T06:29:37;101366.66;;;17.40;70.37
81033;BME280;70514;52.478;6.102;2023-08-07T06:32:07;101376.03;;;17.52;69.98
81033;BME280;70514;52.478;6.102;2023-08-07T06:34:36;101374.25;;;17.57;69.19
81033;BME280;70514;52.478;6.102;2023-08-07T06:37:07;101386.44;;;17.55;69.44
81033;BME280;70514;52.478;6.102;2023-08-07T06:39:35;101395.06;;;17.58;69.37
81033;BME280;70514;52.478;6.102;2023-08-07T06:42:05;101397.69;;;17.60;69.14
81033;BME280;70514;52.478;6.102;2023-08-07T06:44:34;101394.03;;;17.74;69.06
81033;BME280;70514;52.478;6.102;2023-08-07T06:47:03;101394.56;;;18.02;67.78
81033;BME280;70514;52.478;6.102;2023-08-07T06:49:32;101401.34;;;18.14;67.18
81033;BME280;70514;52.478;6.102;2023-08-07T06:52:02;101404.75;;;18.19;67.56
81033;BME280;70514;52.478;6.102;2023-08-07T06:54:31;101399.50;;;18.22;66.44
81033;BME280;70514;52.478;6.102;2023-08-07T06:57:00;101394.84;;;18.44;65.79
81033;BME280;70514;52.478;6.102;2023-08-07T06:59:30;101406.00;;;18.53;65.07
81033;BME280;70514;52.478;6.102;2023-08-07T07:01:59;101402.41;;;18.62;64.91
81033;BME280;70514;52.478;6.102;2023-08-07T07:04:28;101417.28;;;18.57;65.18
81033;BME280;70514;52.478;6.102;2023-08-07T07:06:57;101413.97;;;18.44;65.15
81033;BME280;70514;52.478;6.102;2023-08-07T07:09:26;101417.41;;;18.46;65.00
81033;BME280;70514;52.478;6.102;2023-08-07T07:11:57;101420.22;;;18.33;65.34
81033;BME280;70514;52.478;6.102;2023-08-07T07:14:26;101415.94;;;18.29;65.79
81033;BME280;70514;52.478;6.102;2023-08-07T07:16:55;101428.91;;;18.32;65.62
81033;BME280;70514;52.478;6.102;2023-08-07T07:19:24;101432.31;;;18.38;65.28
81033;BME280;70514;52.478;6.102;2023-08-07T07:21:53;101435.53;;;18.55;64.66
81033;BME280;70514;52.478;6.102;2023-08-07T07:24:23;101439.06;;;18.54;64.43
81033;BME280;70514;52.478;6.102;2023-08-07T07:26:52;101443.53;;;18.43;65.24
81033;BME280;70514;52.478;6.102;2023-08-07T07:29:21;101442.41;;;18.61;64.23
81033;BME280;70514;52.478;6.102;2023-08-07T07:31:50;101447.63;;;18.61;64.67
81033;BME280;70514;52.478;6.102;2023-08-07T07:34:19;101456.50;;;18.46;64.63
81033;BME280;70514;52.478;6.102;2023-08-07T07:36:48;101475.56;;;18.50;64.29
81033;BME280;70514;52.478;6.102;2023-08-07T07:39:18;101463.25;;;18.64;64.28
81033;BME280;70514;52.478;6.102;2023-08-07T07:41:47;101469.81;;;18.26;65.35
81033;BME280;70514;52.478;6.102;2023-08-07T07:44:16;101477.00;;;18.09;65.66
81033;BME280;70514;52.478;6.102;2023-08-07T07:46:45;101474.38;;;18.09;66.18
81033;BME280;70514;52.478;6.102;2023-08-07T07:49:15;101469.81;;;18.28;65.17
81033;BME280;70514;52.478;6.102;2023-08-07T07:51:45;101467.69;;;18.56;64.51
81033;BME280;70514;52.478;6.102;2023-08-07T07:54:15;101477.50;;;18.97;64.51
81033;BME280;70514;52.478;6.102;2023-08-07T07:56:44;101467.56;;;19.22;62.08
81033;BME280;70514;52.478;6.102;2023-08-07T07:59:13;101471.81;;;19.26;62.04
81033;BME280;70514;52.478;6.102;2023-08-07T08:01:42;101480.34;;;19.35;61.15
81033;BME280;70514;52.478;6.102;2023-08-07T08:04:11;101477.38;;;19.58;60.76
81033;BME280;70514;52.478;6.102;2023-08-07T08:06:41;101476.16;;;19.76;60.49
81033;BME280;70514;52.478;6.102;2023-08-07T08:09:10;101494.25;;;19.86;59.45
81033;BME280;70514;52.478;6.102;2023-08-07T08:11:39;101477.41;;;19.57;60.14
81033;BME280;70514;52.478;6.102;2023-08-07T08:14:09;101482.44;;;19.66;59.53
81033;BME280;70514;52.478;6.102;2023-08-07T08:16:39;101486.28;;;19.92;59.00
81033;BME280;70514;52.478;6.102;2023-08-07T08:19:08;101480.53;;;20.18;58.41
81033;BME280;70514;52.478;6.102;2023-08-07T08:21:38;101490.09;;;20.19;57.40
81033;BME280;70514;52.478;6.102;2023-08-07T08:24:09;101493.34;;;20.30;57.75
81033;BME280;70514;52.478;6.102;2023-08-07T08:26:38;101501.91;;;20.39;56.79
81033;BME280;70514;52.478;6.102;2023-08-07T08:29:07;101499.78;;;20.14;56.78
81033;BME280;70514;52.478;6.102;2023-08-07T08:31:37;101502.31;;;20.19;57.72
81033;BME280;70514;52.478;6.102;2023-08-07T08:34:06;101498.41;;;20.41;57.20
81033;BME280;70514;52.478;6.102;2023-08-07T08:36:35;101495.38;;;20.58;56.71
81033;BME280;70514;52.478;6.102;2023-08-07T08:39:04;101508.84;;;20.41;56.97
81033;BME280;70514;52.478;6.102;2023-08-07T08:41:34;101520.63;;;20.19;57.03
81033;BME280;70514;52.478;6.102;2023-08-07T08:44:04;101513.09;;;20.02;58.00
81033;BME280;70514;52.478;6.102;2023-08-07T08:46:34;101510.13;;;20.20;57.80
81033;BME280;70514;52.478;6.102;2023-08-07T08:49:05;101527.19;;;20.40;56.82
81033;BME280;70514;52.478;6.102;2023-08-07T08:51:37;101523.41;;;20.53;56.30
81033;BME280;70514;52.478;6.102;2023-08-07T08:54:06;101520.19;;;20.80;55.68
81033;BME280;70514;52.478;6.102;2023-08-07T08:56:37;101517.09;;;21.00;54.76
81033;BME280;70514;52.478;6.102;2023-08-07T08:59:06;101515.47;;;20.94;53.55
81033;BME280;70514;52.478;6.102;2023-08-07T09:01:36;101512.16;;;20.88;54.37
81033;BME280;70514;52.478;6.102;2023-08-07T09:04:06;101514.81;;;20.86;54.37
81033;BME280;70514;52.478;6.102;2023-08-07T09:06:35;101517.66;;;21.14;54.42
81033;BME280;70514;52.478;6.102;2023-08-07T09:09:05;101530.31;;;21.32;53.80
81033;BME280;70514;52.478;6.102;2023-08-07T09:11:36;101515.13;;;21.09;54.30
81033;BME280;70514;52.478;6.102;2023-08-07T09:14:05;101527.84;;;21.26;53.33
81033;BME280;70514;52.478;6.102;2023-08-07T09:16:35;101523.09;;;21.05;54.16
81033;BME280;70514;52.478;6.102;2023-08-07T09:19:05;101553.25;;;20.44;55.64
81033;BME280;70514;52.478;6.102;2023-08-07T09:21:35;101549.22;;;20.26;55.80
81033;BME280;70514;52.478;6.102;2023-08-07T09:24:04;101548.59;;;20.58;55.47
81033;BME280;70514;52.478;6.102;2023-08-07T09:26:34;101540.81;;;20.94;54.09
81033;BME280;70514;52.478;6.102;2023-08-07T09:29:03;101550.75;;;21.18;52.30
81033;BME280;70514;52.478;6.102;2023-08-07T09:31:32;101548.75;;;21.29;52.24
81033;BME280;70514;52.478;6.102;2023-08-07T09:34:04;101558.91;;;21.41;52.41
81033;BME280;70514;52.478;6.102;2023-08-07T09:36:34;101543.97;;;21.45;52.27
81033;BME280;70514;52.478;6.102;2023-08-07T09:39:04;101550.22;;;21.39;50.16
81033;BME280;70514;52.478;6.102;2023-08-07T09:41:33;101554.69;;;21.70;53.10
81033;BME280;70514;52.478;6.102;2023-08-07T09:44:07;101551.94;;;21.74;52.44
81033;BME280;70514;52.478;6.102;2023-08-07T09:46:44;101563.19;;;21.78;52.22
81033;BME280;70514;52.478;6.102;2023-08-07T09:49:13;101557.63;;;21.90;51.88
81033;BME280;70514;52.478;6.102;2023-08-07T09:51:47;101570.16;;;22.13;51.24
81033;BME280;70514;52.478;6.102;2023-08-07T09:54:16;101562.53;;;22.03;49.73
81033;BME280;70514;52.478;6.102;2023-08-07T09:56:46;101564.00;;;22.14;50.69
81033;BME280;70514;52.478;6.102;2023-08-07T09:59:16;101571.59;;;21.58;51.70
81033;BME280;70514;52.478;6.102;2023-08-07T10:01:46;101577.16;;;21.80;51.80
81033;BME280;70514;52.478;6.102;2023-08-07T10:04:15;101573.56;;;21.82;51.22
81033;BME280;70514;52.478;6.102;2023-08-07T10:06:45;101586.06;;;21.39;52.42
81033;BME280;70514;52.478;6.102;2023-08-07T10:09:15;101590.00;;;20.79;54.23
81033;BME280;70514;52.478;6.102;2023-08-07T10:11:45;101601.13;;;20.49;55.74
81033;BME280;70514;52.478;6.102;2023-08-07T10:14:15;101611.28;;;20.18;55.50
81033;BME280;70514;52.478;6.102;2023-08-07T10:16:45;101609.47;;;20.22;57.19
81033;BME280;70514;52.478;6.102;2023-08-07T10:19:14;101606.34;;;20.03;57.18
81033;BME280;70514;52.478;6.102;2023-08-07T10:21:44;101611.47;;;20.08;57.09
81033;BME280;70514;52.478;6.102;2023-08-07T10:24:15;101619.31;;;20.09;57.02
81033;BME280;70514;52.478;6.102;2023-08-07T10:26:45;101603.91;;;19.92;57.88
81033;BME280;70514;52.478;6.102;2023-08-07T10:29:17;101617.31;;;20.22;57.11
81033;BME280;70514;52.478;6.102;2023-08-07T10:31:48;101620.19;;;20.10;56.87
81033;BME280;70514;52.478;6.102;2023-08-07T10:34:19;101624.34;;;20.20;57.17
81033;BME280;70514;52.478;6.102;2023-08-07T10:36:49;101623.78;;;19.50;56.75
81033;BME280;70514;52.478;6.102;2023-08-07T10:39:18;101623.28;;;19.24;59.50
81033;BME280;70514;52.478;6.102;2023-08-07T10:41:53;101621.97;;;20.06;57.56
81033;BME280;70514;52.478;6.102;2023-08-07T10:44:25;101623.09;;;19.93;57.63
81033;BME280;70514;52.478;6.102;2023-08-07T10:46:55;101628.06;;;20.07;57.62
81033;BME280;70514;52.478;6.102;2023-08-07T10:52:22;101632.16;;;19.74;58.45
81033;BME280;70514;52.478;6.102;2023-08-07T10:54:54;101623.38;;;19.75;58.90
81033;BME280;70514;52.478;6.102;2023-08-07T10:57:31;101628.41;;;19.87;58.88
81033;BME280;70514;52.478;6.102;2023-08-07T11:00:02;101630.56;;;20.13;57.88
81033;BME280;70514;52.478;6.102;2023-08-07T11:02:37;101626.41;;;20.90;55.47
81033;BME280;70514;52.478;6.102;2023-08-07T11:05:08;101620.47;;;21.24;53.77
81033;BME280;70514;52.478;6.102;2023-08-07T11:07:39;101626.78;;;21.52;53.22
81033;BME280;70514;52.478;6.102;2023-08-07T11:10:12;101638.19;;;21.85;52.58
81033;BME280;70514;52.478;6.102;2023-08-07T11:12:44;101629.81;;;21.71;50.37
81033;BME280;70514;52.478;6.102;2023-08-07T11:15:13;101634.47;;;21.95;51.45
81033;BME280;70514;52.478;6.102;2023-08-07T11:17:43;101651.56;;;21.74;52.33
81033;BME280;70514;52.478;6.102;2023-08-07T11:20:12;101630.00;;;21.63;52.19
81033;BME280;70514;52.478;6.102;2023-08-07T11:22:42;101632.88;;;21.52;52.37
81033;BME280;70514;52.478;6.102;2023-08-07T11:25:12;101638.47;;;21.39;52.68
81033;BME280;70514;52.478;6.102;2023-08-07T11:27:43;101641.19;;;21.34;53.42
81033;BME280;70514;52.478;6.102;2023-08-07T11:30:12;101641.63;;;21.14;53.66
81033;BME280;70514;52.478;6.102;2023-08-07T11:32:42;101640.38;;;20.91;54.19
81033;BME280;70514;52.478;6.102;2023-08-07T11:35:11;101639.38;;;20.96;53.94
81033;BME280;70514;52.478;6.102;2023-08-07T11:37:47;101655.66;;;20.69;55.04
81033;BME280;70514;52.478;6.102;2023-08-07T11:40:16;101655.31;;;20.43;55.57
81033;BME280;70514;52.478;6.102;2023-08-07T11:42:45;101656.75;;;20.57;55.86
81033;BME280;70514;52.478;6.102;2023-08-07T11:45:17;101648.31;;;21.28;53.21
81033;BME280;70514;52.478;6.102;2023-08-07T11:47:46;101652.44;;;22.10;51.70
81033;BME280;70514;52.478;6.102;2023-08-07T11:50:16;101650.72;;;22.72;49.02
81033;BME280;70514;52.478;6.102;2023-08-07T11:52:45;101650.31;;;22.86;48.46
81033;BME280;70514;52.478;6.102;2023-08-07T11:55:15;101651.69;;;22.68;48.88
81033;BME280;70514;52.478;6.102;2023-08-07T11:57:47;101642.44;;;22.55;49.13
81033;BME280;70514;52.478;6.102;2023-08-07T12:00:16;101655.63;;;22.54;48.96
81033;BME280;70514;52.478;6.102;2023-08-07T12:02:45;101651.53;;;22.11;49.15
81033;BME280;70514;52.478;6.102;2023-08-07T12:05:15;101650.53;;;22.48;48.64
81033;BME280;70514;52.478;6.102;2023-08-07T12:07:44;101647.13;;;22.75;47.00
81033;BME280;70514;52.478;6.102;2023-08-07T12:10:13;101656.22;;;22.32;48.61
81033;BME280;70514;52.478;6.102;2023-08-07T12:12:44;101650.53;;;22.15;46.93
81033;BME280;70514;52.478;6.102;2023-08-07T12:15:19;101651.34;;;21.82;51.28
81033;BME280;70514;52.478;6.102;2023-08-07T12:17:48;101652.56;;;21.70;51.05
81033;BME280;70514;52.478;6.102;2023-08-07T12:20:17;101654.44;;;21.65;50.63
81033;BME280;70514;52.478;6.102;2023-08-07T12:22:46;101656.34;;;21.57;50.98
81033;BME280;70514;52.478;6.102;2023-08-07T12:25:17;101670.41;;;21.54;50.78
81033;BME280;70514;52.478;6.102;2023-08-07T12:27:46;101662.53;;;21.54;50.90
81033;BME280;70514;52.478;6.102;2023-08-07T12:30:17;101668.69;;;21.53;51.46
81033;BME280;70514;52.478;6.102;2023-08-07T12:32:46;101655.59;;;21.52;52.04
81033;BME280;70514;52.478;6.102;2023-08-07T12:35:18;101649.56;;;21.84;50.47
81033;BME280;70514;52.478;6.102;2023-08-07T12:37:47;101652.72;;;22.32;49.84
81033;BME280;70514;52.478;6.102;2023-08-07T12:40:16;101656.59;;;22.50;49.70
81033;BME280;70514;52.478;6.102;2023-08-07T12:42:52;101647.47;;;22.94;47.39
81033;BME280;70514;52.478;6.102;2023-08-07T12:45:22;101657.56;;;22.78;48.41
81033;BME280;70514;52.478;6.102;2023-08-07T12:47:54;101651.81;;;22.33;49.17
81033;BME280;70514;52.478;6.102;2023-08-07T12:50:29;101648.66;;;22.20;49.63
81033;BME280;70514;52.478;6.102;2023-08-07T12:52:58;101646.03;;;21.86;50.47
81033;BME280;70514;52.478;6.102;2023-08-07T12:55:27;101646.44;;;21.70;51.44
81033;BME280;70514;52.478;6.102;2023-08-07T12:57:58;101644.34;;;21.82;51.50
81033;BME280;70514;52.478;6.102;2023-08-07T13:00:27;101651.13;;;21.55;52.26
81033;BME280;70514;52.478;6.102;2023-08-07T13:02:56;101652.19;;;22.19;50.74
81033;BME280;70514;52.478;6.102;2023-08-07T13:05:27;101646.88;;;22.84;48.54
81033;BME280;70514;52.478;6.102;2023-08-07T13:07:56;101654.84;;;22.81;47.75
81033;BME280;70514;52.478;6.102;2023-08-07T13:10:27;101644.16;;;22.25;50.25
81033;BME280;70514;52.478;6.102;2023-08-07T13:13:00;101658.28;;;21.86;51.06